Alsace — PB4786 — position and weather

sailwx.info

Track history (hours):
 
Tides and Currents Weather Stations Pressure Air Temp Water Temp Dewpoint Dewpoint Depression Visibility Wind Speed Wind Dir Waves Ship Positions

Alsace

Last reported at 2015-Apr-20 22:05 UTC. Time now 2015-Apr-21 14:43 UTC.
Position N 50°49' E 007°01'.

Length 178 m.

Type: Ship. MMSI: 244660556.

Date/timePositionNaut miles runAvg speedWind from/ knotsBaromVisibWave heightAir tempDewpointWater temp
2015-Apr-20 22:05N 50°49' E 007°01'2 3.3
2015-Apr-20 21:26N 50°51' E 007°00'3 2.8
2015-Apr-20 20:30N 50°54' E 006°60'12 4.8
2015-Apr-20 18:05N 51°04' E 006°52'2 3.9
2015-Apr-20 17:29N 51°07' E 006°53'3 3.4
2015-Apr-20 16:33N 51°09' E 006°49'4 3.7
2015-Apr-20 15:33N 51°11' E 006°44'3 3.4
2015-Apr-20 14:33N 51°14' E 006°46'21 4.1
2015-Apr-20 09:25N 51°35' E 006°39'18 4.6
2015-Apr-20 05:30N 51°48' E 006°19'9 6.4
2015-Apr-20 04:05N 51°51' E 006°05'9 5.4
2015-Apr-20 02:21N 51°52' E 005°50'0 0.6
2015-Apr-20 01:33N 51°52' E 005°50'0 0.0
2015-Apr-20 00:30N 51°52' E 005°50'0 0.0
2015-Apr-19 23:08N 51°52' E 005°50'6 1.9
2015-Apr-19 20:03N 51°54' E 005°41'4 6.2
2015-Apr-19 19:27N 51°54' E 005°35'7 6.4
2015-Apr-19 18:18N 51°50' E 005°24'13 6.2
2015-Apr-19 16:14N 51°49' E 005°04'5 8.0
2015-Apr-19 15:33N 51°50' E 004°55'9 8.7
2015-Apr-19 14:34N 51°49' E 004°41'8 7.5
2015-Apr-19 13:33N 51°54' E 004°31'5 4.6
2015-Apr-19 12:33N 51°53' E 004°24'0 0.0
2015-Apr-19 11:33N 51°53' E 004°24'0 0.0
2015-Apr-19 10:33N 51°53' E 004°24'0 0.0
2015-Apr-19 09:33N 51°53' E 004°24'0 0.0
2015-Apr-19 08:33N 51°53' E 004°24'1 0.7
2015-Apr-19 07:33N 51°54' E 004°24'0 0.0
2015-Apr-19 06:33N 51°53' E 004°24'0 0.0
2015-Apr-19 05:33N 51°54' E 004°24'0 0.0
2015-Apr-19 04:33N 51°54' E 004°24'0 0.0
2015-Apr-19 03:33N 51°53' E 004°24'1 0.6
2015-Apr-19 02:33N 51°53' E 004°25'0 0.0
2015-Apr-19 01:33N 51°53' E 004°25'0 0.0
2015-Apr-19 00:33N 51°53' E 004°25'0 0.0
2015-Apr-18 23:33N 51°53' E 004°25'0 0.0
2015-Apr-18 22:33N 51°53' E 004°25'0 0.3
2015-Apr-18 21:33N 51°53' E 004°24'4 4.2
2015-Apr-18 20:33N 51°52' E 004°18'7 6.6
2015-Apr-18 19:33N 51°56' E 004°09'5 4.7
2015-Apr-18 18:33N 51°57' E 004°02'0 0.0
2015-Apr-18 17:33N 51°57' E 004°02'1 0.6
2015-Apr-18 16:33N 51°58' E 004°02'0 0.0
2015-Apr-18 15:34N 51°58' E 004°02'0 0.0
2015-Apr-18 14:33N 51°58' E 004°02'0 0.0
2015-Apr-18 13:33N 51°58' E 004°02'0 0.0
2015-Apr-18 12:33N 51°58' E 004°02'0 0.0
2015-Apr-18 11:33N 51°58' E 004°02'0 0.0
2015-Apr-18 10:33N 51°58' E 004°02'0 0.0
2015-Apr-18 09:33N 51°58' E 004°02'0 0.0
2015-Apr-18 08:33N 51°58' E 004°02'0 0.0
2015-Apr-18 07:33N 51°58' E 004°02'0 0.0
2015-Apr-18 06:33N 51°58' E 004°02'0 0.0
2015-Apr-18 05:33N 51°58' E 004°02'0 0.0
2015-Apr-18 04:33N 51°58' E 004°02'0 0.0
2015-Apr-18 03:33N 51°58' E 004°02'0 0.1
2015-Apr-18 02:33N 51°58' E 004°02'0 0.3
2015-Apr-18 01:33N 51°58' E 004°03'0 0.0
2015-Apr-18 00:33N 51°58' E 004°03'2 2.2
2015-Apr-17 23:33N 51°56' E 004°02'0 0.2
2015-Apr-17 22:33N 51°56' E 004°02'1 0.8
2015-Apr-17 21:33N 51°57' E 004°03'0 0.0
2015-Apr-17 20:33N 51°57' E 004°03'0 0.0
2015-Apr-17 19:33N 51°57' E 004°03'7 6.8
2015-Apr-17 18:34N 51°54' E 004°13'1010.5
2015-Apr-17 17:33N 51°50' E 004°28'9 9.3
2015-Apr-17 16:34N 51°49' E 004°43'14 9.9
2015-Apr-17 15:12N 51°50' E 005°05'710.4
2015-Apr-17 14:33N 51°49' E 005°16'19 9.5
2015-Apr-17 12:32N 51°53' E 005°47'2 0.7
2015-Apr-17 09:26N 51°52' E 005°50'0 0.1
2015-Apr-17 07:21N 51°52' E 005°50'0 0.0
2015-Apr-17 06:24N 51°52' E 005°50'0 0.0
2015-Apr-17 03:28N 51°52' E 005°50'34 6.8
2015-Apr-16 22:28N 51°34' E 006°37'16 6.5
2015-Apr-16 20:03N 51°19' E 006°44'4 8.0
2015-Apr-16 19:33N 51°15' E 006°45'6 5.8
2015-Apr-16 18:33N 51°10' E 006°48'14 6.9
2015-Apr-16 16:29N 50°57' E 006°58'111 7.3
2015-Apr-16 01:24N 49°23' E 008°30'6 7.3
2015-Apr-16 00:31N 49°17' E 008°27'9 9.5
2015-Apr-15 23:33N 49°08' E 008°22'1010.3
2015-Apr-15 22:33N 48°59' E 008°16'12 3.6
2015-Apr-15 19:21N 48°49' E 008°06'5 6.9
2015-Apr-15 18:33N 48°46' E 008°00'6 5.6
2015-Apr-15 17:32N 48°41' E 007°55'63 2.5
2015-Apr-14 16:07N 47°40' E 007°31'1 1.1
2015-Apr-14 15:33N 47°39' E 007°32'4 3.7
2015-Apr-14 14:33N 47°36' E 007°36'1 1.1
2015-Apr-14 13:33N 47°35' E 007°35'0 0.2
2015-Apr-14 12:33N 47°35' E 007°35'0 0.0
2015-Apr-14 11:33N 47°35' E 007°35'0 0.0
2015-Apr-14 10:33N 47°35' E 007°35'0 0.0
2015-Apr-14 09:33N 47°35' E 007°35'0 0.0
2015-Apr-14 08:33N 47°35' E 007°35'1 1.2
2015-Apr-14 07:33N 47°36' E 007°36'0 0.2
2015-Apr-14 06:33N 47°36' E 007°35'0 0.0
2015-Apr-14 05:33N 47°36' E 007°35'0 0.0
2015-Apr-14 04:33N 47°36' E 007°35'0 0.0
2015-Apr-14 03:33N 47°36' E 007°35'0 0.0
2015-Apr-14 02:33N 47°36' E 007°35'0 0.0
2015-Apr-14 01:33N 47°36' E 007°35'0 0.0
2015-Apr-14 00:33N 47°36' E 007°35'4 3.8
2015-Apr-13 23:33N 47°39' E 007°32'63 2.2
2015-Apr-12 18:30N 48°40' E 007°54'3 3.1
2015-Apr-12 17:33N 48°43' E 007°57'6 5.7
2015-Apr-12 16:32N 48°47' E 008°02'4 4.0
2015-Apr-12 15:32N 48°50' E 008°07'5 4.9
2015-Apr-12 14:33N 48°54' E 008°09'4 4.0
2015-Apr-12 13:33N 48°58' E 008°13'4 4.1
2015-Apr-12 12:33N 49°00' E 008°18'4 4.4
2015-Apr-12 11:33N 49°04' E 008°20'4 4.4
2015-Apr-12 10:33N 49°09' E 008°22'4 4.4
2015-Apr-12 09:33N 49°13' E 008°23'5 4.7
2015-Apr-12 08:33N 49°17' E 008°27'3 3.1
2015-Apr-12 07:33N 49°20' E 008°27'107 3.9
2015-Apr-11 04:22N 50°51' E 006°59'4 4.3
2015-Apr-11 03:29N 50°54' E 007°03'4 4.2
2015-Apr-11 02:26N 50°57' E 006°58'12 4.1
2015-Apr-10 23:33N 51°08' E 006°51'3 2.5
2015-Apr-10 22:33N 51°09' E 006°48'  
Track history (hours):
 
Tides and Currents Weather Stations Pressure Air Temp Water Temp Dewpoint Dewpoint Depression Visibility Wind Speed Wind Dir Waves Ship Positions

Alsace

Last reported at 2015-Apr-20 22:05 UTC. Time now 2015-Apr-21 14:43 UTC.
Position N 50°49' E 007°01'.

Length 178 m.

Type: Ship. MMSI: 244660556.

Date/timePositionNaut miles runAvg speedWind from/ knotsBaromVisibWave heightAir tempDewpointWater temp
2015-Apr-20 22:05N 50°49' E 007°01'2 3.3
2015-Apr-20 21:26N 50°51' E 007°00'3 2.8
2015-Apr-20 20:30N 50°54' E 006°60'12 4.8
2015-Apr-20 18:05N 51°04' E 006°52'2 3.9
2015-Apr-20 17:29N 51°07' E 006°53'3 3.4
2015-Apr-20 16:33N 51°09' E 006°49'4 3.7
2015-Apr-20 15:33N 51°11' E 006°44'3 3.4
2015-Apr-20 14:33N 51°14' E 006°46'21 4.1
2015-Apr-20 09:25N 51°35' E 006°39'18 4.6
2015-Apr-20 05:30N 51°48' E 006°19'9 6.4
2015-Apr-20 04:05N 51°51' E 006°05'9 5.4
2015-Apr-20 02:21N 51°52' E 005°50'0 0.6
2015-Apr-20 01:33N 51°52' E 005°50'0 0.0
2015-Apr-20 00:30N 51°52' E 005°50'0 0.0
2015-Apr-19 23:08N 51°52' E 005°50'6 1.9
2015-Apr-19 20:03N 51°54' E 005°41'4 6.2
2015-Apr-19 19:27N 51°54' E 005°35'7 6.4
2015-Apr-19 18:18N 51°50' E 005°24'13 6.2
2015-Apr-19 16:14N 51°49' E 005°04'5 8.0
2015-Apr-19 15:33N 51°50' E 004°55'9 8.7
2015-Apr-19 14:34N 51°49' E 004°41'8 7.5
2015-Apr-19 13:33N 51°54' E 004°31'5 4.6
2015-Apr-19 12:33N 51°53' E 004°24'0 0.0
2015-Apr-19 11:33N 51°53' E 004°24'0 0.0
2015-Apr-19 10:33N 51°53' E 004°24'0 0.0
2015-Apr-19 09:33N 51°53' E 004°24'0 0.0
2015-Apr-19 08:33N 51°53' E 004°24'1 0.7
2015-Apr-19 07:33N 51°54' E 004°24'0 0.0
2015-Apr-19 06:33N 51°53' E 004°24'0 0.0
2015-Apr-19 05:33N 51°54' E 004°24'0 0.0
2015-Apr-19 04:33N 51°54' E 004°24'0 0.0
2015-Apr-19 03:33N 51°53' E 004°24'1 0.6
2015-Apr-19 02:33N 51°53' E 004°25'0 0.0
2015-Apr-19 01:33N 51°53' E 004°25'0 0.0
2015-Apr-19 00:33N 51°53' E 004°25'0 0.0
2015-Apr-18 23:33N 51°53' E 004°25'0 0.0
2015-Apr-18 22:33N 51°53' E 004°25'0 0.3
2015-Apr-18 21:33N 51°53' E 004°24'4 4.2
2015-Apr-18 20:33N 51°52' E 004°18'7 6.6
2015-Apr-18 19:33N 51°56' E 004°09'5 4.7
2015-Apr-18 18:33N 51°57' E 004°02'0 0.0
2015-Apr-18 17:33N 51°57' E 004°02'1 0.6
2015-Apr-18 16:33N 51°58' E 004°02'0 0.0
2015-Apr-18 15:34N 51°58' E 004°02'0 0.0
2015-Apr-18 14:33N 51°58' E 004°02'0 0.0
2015-Apr-18 13:33N 51°58' E 004°02'0 0.0
2015-Apr-18 12:33N 51°58' E 004°02'0 0.0
2015-Apr-18 11:33N 51°58' E 004°02'0 0.0
2015-Apr-18 10:33N 51°58' E 004°02'0 0.0
2015-Apr-18 09:33N 51°58' E 004°02'0 0.0
2015-Apr-18 08:33N 51°58' E 004°02'0 0.0
2015-Apr-18 07:33N 51°58' E 004°02'0 0.0
2015-Apr-18 06:33N 51°58' E 004°02'0 0.0
2015-Apr-18 05:33N 51°58' E 004°02'0 0.0
2015-Apr-18 04:33N 51°58' E 004°02'0 0.0
2015-Apr-18 03:33N 51°58' E 004°02'0 0.1
2015-Apr-18 02:33N 51°58' E 004°02'0 0.3
2015-Apr-18 01:33N 51°58' E 004°03'0 0.0
2015-Apr-18 00:33N 51°58' E 004°03'2 2.2
2015-Apr-17 23:33N 51°56' E 004°02'0 0.2
2015-Apr-17 22:33N 51°56' E 004°02'1 0.8
2015-Apr-17 21:33N 51°57' E 004°03'0 0.0
2015-Apr-17 20:33N 51°57' E 004°03'0 0.0
2015-Apr-17 19:33N 51°57' E 004°03'7 6.8
2015-Apr-17 18:34N 51°54' E 004°13'1010.5
2015-Apr-17 17:33N 51°50' E 004°28'9 9.3
2015-Apr-17 16:34N 51°49' E 004°43'14 9.9
2015-Apr-17 15:12N 51°50' E 005°05'710.4
2015-Apr-17 14:33N 51°49' E 005°16'19 9.5
2015-Apr-17 12:32N 51°53' E 005°47'2 0.7
2015-Apr-17 09:26N 51°52' E 005°50'0 0.1
2015-Apr-17 07:21N 51°52' E 005°50'0 0.0
2015-Apr-17 06:24N 51°52' E 005°50'0 0.0
2015-Apr-17 03:28N 51°52' E 005°50'34 6.8
2015-Apr-16 22:28N 51°34' E 006°37'16 6.5
2015-Apr-16 20:03N 51°19' E 006°44'4 8.0
2015-Apr-16 19:33N 51°15' E 006°45'6 5.8
2015-Apr-16 18:33N 51°10' E 006°48'14 6.9
2015-Apr-16 16:29N 50°57' E 006°58'111 7.3
2015-Apr-16 01:24N 49°23' E 008°30'6 7.3
2015-Apr-16 00:31N 49°17' E 008°27'9 9.5
2015-Apr-15 23:33N 49°08' E 008°22'1010.3
2015-Apr-15 22:33N 48°59' E 008°16'12 3.6
2015-Apr-15 19:21N 48°49' E 008°06'5 6.9
2015-Apr-15 18:33N 48°46' E 008°00'6 5.6
2015-Apr-15 17:32N 48°41' E 007°55'63 2.5
2015-Apr-14 16:07N 47°40' E 007°31'1 1.1
2015-Apr-14 15:33N 47°39' E 007°32'4 3.7
2015-Apr-14 14:33N 47°36' E 007°36'1 1.1
2015-Apr-14 13:33N 47°35' E 007°35'0 0.2
2015-Apr-14 12:33N 47°35' E 007°35'0 0.0
2015-Apr-14 11:33N 47°35' E 007°35'0 0.0
2015-Apr-14 10:33N 47°35' E 007°35'0 0.0
2015-Apr-14 09:33N 47°35' E 007°35'0 0.0
2015-Apr-14 08:33N 47°35' E 007°35'1 1.2
2015-Apr-14 07:33N 47°36' E 007°36'0 0.2
2015-Apr-14 06:33N 47°36' E 007°35'0 0.0
2015-Apr-14 05:33N 47°36' E 007°35'0 0.0
2015-Apr-14 04:33N 47°36' E 007°35'0 0.0
2015-Apr-14 03:33N 47°36' E 007°35'0 0.0
2015-Apr-14 02:33N 47°36' E 007°35'0 0.0
2015-Apr-14 01:33N 47°36' E 007°35'0 0.0
2015-Apr-14 00:33N 47°36' E 007°35'4 3.8
2015-Apr-13 23:33N 47°39' E 007°32'63 2.2
2015-Apr-12 18:30N 48°40' E 007°54'3 3.1
2015-Apr-12 17:33N 48°43' E 007°57'6 5.7
2015-Apr-12 16:32N 48°47' E 008°02'4 4.0
2015-Apr-12 15:32N 48°50' E 008°07'5 4.9
2015-Apr-12 14:33N 48°54' E 008°09'4 4.0
2015-Apr-12 13:33N 48°58' E 008°13'4 4.1
2015-Apr-12 12:33N 49°00' E 008°18'4 4.4
2015-Apr-12 11:33N 49°04' E 008°20'4 4.4
2015-Apr-12 10:33N 49°09' E 008°22'4 4.4
2015-Apr-12 09:33N 49°13' E 008°23'5 4.7
2015-Apr-12 08:33N 49°17' E 008°27'3 3.1
2015-Apr-12 07:33N 49°20' E 008°27'107 3.9
2015-Apr-11 04:22N 50°51' E 006°59'4 4.3
2015-Apr-11 03:29N 50°54' E 007°03'4 4.2
2015-Apr-11 02:26N 50°57' E 006°58'12 4.1
2015-Apr-10 23:33N 51°08' E 006°51'3 2.5
2015-Apr-10 22:33N 51°09' E 006°48'  

Dump ship's entire track history